Time;durP1;ratioP1;P1;durP2;ratioP2;P2;SDS_P1;SDS_P2;PMS_P1;PMS_P2;Temp;Humidity;BMP_temperature;BMP_pressure;BME280_temperature;BME280_humidity;BME280_pressure;Samples;Min_cycle;Max_cycle;Signal;HPM_P1;HPM_P2
2024/02/10 00:00:21;;;;;;;1.92;1.80;;;16.00;60.10;;;;;;5072385;28;20589;-74
2024/02/10 00:02:47;;;;;;;2.33;2.03;;;16.00;60.20;;;;;;5073290;28;20178;-74
2024/02/10 00:05:13;;;;;;;2.20;1.83;;;15.90;60.10;;;;;;5073561;28;20174;-74
2024/02/10 00:07:39;;;;;;;1.48;1.38;;;16.00;60.20;;;;;;5072468;28;20708;-74
2024/02/10 00:10:05;;;;;;;2.10;1.70;;;15.90;60.10;;;;;;5073314;28;20637;-74
2024/02/10 00:12:31;;;;;;;3.10;1.70;;;15.90;60.10;;;;;;5072916;28;20206;-74
2024/02/10 00:14:57;;;;;;;1.98;1.50;;;15.90;60.20;;;;;;5072459;28;20166;-74
2024/02/10 00:17:26;;;;;;;2.33;2.00;;;15.90;60.20;;;;;;5072667;28;20240;-74
2024/02/10 00:19:55;;;;;;;3.17;2.00;;;15.90;61.00;;;;;;5072402;28;20193;-73
2024/02/10 00:22:22;;;;;;;2.10;1.90;;;15.90;60.20;;;;;;5072623;28;20185;-74
2024/02/10 00:24:48;;;;;;;2.03;1.83;;;15.90;60.30;;;;;;5072557;28;20236;-74
2024/02/10 00:27:17;;;;;;;2.13;1.50;;;15.90;60.20;;;;;;5070906;28;20562;-74
2024/02/10 00:29:45;;;;;;;2.05;1.73;;;15.90;60.20;;;;;;5072633;28;20706;-74
2024/02/10 00:32:11;;;;;;;1.88;1.60;;;15.90;60.20;;;;;;5072963;28;20231;-75
2024/02/10 00:34:39;;;;;;;2.13;1.92;;;15.90;60.30;;;;;;5071831;28;20209;-74
2024/02/10 00:37:06;;;;;;;1.70;1.60;;;15.90;60.20;;;;;;5072763;28;20300;-74
2024/02/10 00:39:31;;;;;;;2.63;1.85;;;15.90;60.20;;;;;;5072203;28;20185;-74
2024/02/10 00:41:57;;;;;;;1.83;1.70;;;15.90;60.20;;;;;;5072026;28;20178;-73
2024/02/10 00:44:23;;;;;;;1.75;1.65;;;15.90;60.30;;;;;;5072147;28;20827;-73
2024/02/10 00:46:48;;;;;;;1.63;1.52;;;15.90;60.30;;;;;;5072788;28;20174;-73
2024/02/10 00:49:14;;;;;;;1.85;1.75;;;15.90;60.30;;;;;;5072009;28;20193;-73
2024/02/10 00:51:40;;;;;;;1.95;1.35;;;15.80;60.20;;;;;;5072078;28;20535;-73
2024/02/10 00:54:05;;;;;;;1.85;1.70;;;15.90;60.30;;;;;;5053959;28;20179;-74
2024/02/10 00:56:31;;;;;;;1.92;1.80;;;15.80;60.20;;;;;;5051523;28;20214;-73
2024/02/10 00:58:56;;;;;;;1.60;1.50;;;15.80;60.20;;;;;;5052088;28;20234;-73
2024/02/10 01:01:22;;;;;;;1.65;1.50;;;15.90;60.30;;;;;;5052217;28;20171;-73
2024/02/10 01:03:48;;;;;;;1.48;1.38;;;15.90;60.30;;;;;;5051793;28;20183;-73
2024/02/10 01:06:15;;;;;;;1.80;1.70;;;15.90;61.10;;;;;;5052390;28;20181;-73
2024/02/10 01:08:46;;;;;;;1.77;1.55;;;15.80;60.20;;;;;;5052005;28;20186;-73
2024/02/10 01:11:13;;;;;;;2.10;1.52;;;15.80;60.30;;;;;;5051745;28;20184;-74
2024/02/10 01:13:42;;;;;;;1.67;1.58;;;15.80;60.30;;;;;;5051823;28;20182;-74
2024/02/10 01:16:09;;;;;;;2.45;1.88;;;15.80;60.30;;;;;;5051513;28;20225;-74
2024/02/10 01:18:36;;;;;;;1.63;1.52;;;15.80;60.30;;;;;;5051578;28;20186;-74
2024/02/10 01:21:03;;;;;;;1.98;1.63;;;15.80;60.30;;;;;;5052176;28;20171;-74
2024/02/10 01:23:31;;;;;;;1.63;1.52;;;15.80;60.30;;;;;;5050972;28;20673;-73
2024/02/10 01:25:57;;;;;;;1.75;1.45;;;15.80;60.30;;;;;;5051921;28;20175;-74
2024/02/10 01:28:23;;;;;;;2.03;1.83;;;15.80;60.30;;;;;;5051634;28;20229;-74
2024/02/10 01:30:51;;;;;;;1.95;1.75;;;15.80;60.30;;;;;;5051280;28;20183;-74
2024/02/10 01:33:17;;;;;;;1.42;1.33;;;15.80;60.30;;;;;;5051896;28;20258;-74
2024/02/10 01:35:43;;;;;;;2.33;1.42;;;15.80;60.30;;;;;;5051027;28;20183;-73
2024/02/10 01:38:09;;;;;;;2.35;1.55;;;15.80;60.30;;;;;;5051153;28;20214;-74
2024/02/10 01:40:35;;;;;;;2.63;1.40;;;15.80;60.30;;;;;;5051469;28;20187;-74
2024/02/10 01:43:04;;;;;;;1.98;1.65;;;15.80;60.30;;;;;;5052027;28;20183;-74
2024/02/10 01:45:29;;;;;;;2.05;1.33;;;15.80;60.30;;;;;;5050810;28;20860;-72
2024/02/10 01:47:55;;;;;;;1.70;1.60;;;15.80;60.30;;;;;;5051685;28;20178;-73
2024/02/10 01:50:20;;;;;;;1.95;1.70;;;15.70;60.30;;;;;;5051415;28;20183;-74
2024/02/10 01:52:48;;;;;;;1.65;1.38;;;15.70;60.30;;;;;;5057376;28;20171;-74
2024/02/10 01:55:14;;;;;;;1.92;1.75;;;15.70;60.30;;;;;;5071517;28;20461;-74
2024/02/10 01:57:39;;;;;;;1.75;1.63;;;15.70;60.30;;;;;;5071277;28;20288;-74
2024/02/10 02:00:06;;;;;;;1.50;1.40;;;15.80;60.40;;;;;;5069599;28;20175;-74
2024/02/10 02:02:32;;;;;;;1.60;1.50;;;15.70;60.30;;;;;;5071571;28;20607;-74
2024/02/10 02:04:59;;;;;;;1.90;1.65;;;15.70;60.30;;;;;;5071671;28;20185;-74
2024/02/10 02:07:28;;;;;;;1.98;1.55;;;15.70;60.30;;;;;;5070646;28;20187;-74
2024/02/10 02:09:53;;;;;;;1.58;1.40;;;15.70;60.30;;;;;;5071420;28;20171;-74
2024/02/10 02:12:19;;;;;;;1.60;1.50;;;15.70;60.30;;;;;;5070291;28;20174;-74
2024/02/10 02:14:47;;;;;;;1.73;1.63;;;15.70;60.30;;;;;;5071210;28;20167;-73
2024/02/10 02:17:12;;;;;;;1.75;1.33;;;15.70;60.30;;;;;;5071484;28;20289;-74
2024/02/10 02:19:40;;;;;;;2.35;1.90;;;15.70;60.30;;;;;;5070349;28;20285;-74
2024/02/10 02:22:09;;;;;;;1.80;1.60;;;15.70;60.30;;;;;;5071373;28;20232;-74
2024/02/10 02:24:34;;;;;;;2.10;1.90;;;15.70;60.30;;;;;;5071051;28;20217;-74
2024/02/10 02:27:00;;;;;;;1.90;1.65;;;15.70;60.40;;;;;;5070873;28;20653;-74
2024/02/10 02:29:25;;;;;;;1.60;1.50;;;15.70;60.40;;;;;;5071318;28;20531;-74
2024/02/10 02:31:53;;;;;;;2.20;1.92;;;15.70;60.40;;;;;;5071439;28;20175;-74
2024/02/10 02:34:20;;;;;;;2.00;1.40;;;15.70;60.40;;;;;;5070470;28;20237;-75
2024/02/10 02:36:46;;;;;;;1.92;1.67;;;15.70;60.40;;;;;;5071187;28;20198;-74
2024/02/10 02:39:11;;;;;;;1.52;1.42;;;15.70;60.40;;;;;;5071492;28;20178;-74
2024/02/10 02:41:37;;;;;;;1.50;1.40;;;15.70;60.40;;;;;;5070501;28;20645;-73
2024/02/10 02:44:05;;;;;;;1.42;1.33;;;15.70;60.40;;;;;;5071396;28;20689;-73
2024/02/10 02:46:31;;;;;;;1.58;1.30;;;15.70;60.40;;;;;;5071101;28;20274;-74
2024/02/10 02:48:56;;;;;;;1.40;1.30;;;15.70;60.40;;;;;;5073983;28;20645;-74
2024/02/10 02:51:22;;;;;;;1.75;1.50;;;15.70;60.40;;;;;;5074497;28;20174;-73
2024/02/10 02:53:51;;;;;;;1.50;1.40;;;15.70;60.40;;;;;;5058976;28;20179;-74
2024/02/10 02:56:18;;;;;;;1.60;1.50;;;15.70;60.40;;;;;;5053861;28;20222;-74
2024/02/10 02:58:51;;;;;;;1.60;1.50;;;15.60;60.40;;;;;;5054524;28;20226;-74
2024/02/10 03:01:16;;;;;;;1.50;1.40;;;15.60;61.20;;;;;;5054862;28;20194;-73
2024/02/10 03:03:46;;;;;;;2.65;1.30;;;15.60;60.40;;;;;;5053905;28;20171;-73
2024/02/10 03:06:12;;;;;;;1.95;1.77;;;15.60;60.40;;;;;;5054897;28;20175;-74
2024/02/10 03:08:42;;;;;;;1.67;1.58;;;15.60;60.40;;;;;;5053295;28;20640;-74
2024/02/10 03:11:07;;;;;;;1.40;1.30;;;15.60;60.40;;;;;;5054554;28;20175;-74
2024/02/10 03:13:33;;;;;;;1.60;1.50;;;15.60;60.40;;;;;;5054000;28;20209;-74
2024/02/10 03:16:00;;;;;;;1.65;1.55;;;15.60;60.40;;;;;;5053562;28;20175;-74
2024/02/10 03:18:26;;;;;;;1.35;1.25;;;15.60;60.40;;;;;;5053957;28;20187;-74
2024/02/10 03:20:51;;;;;;;1.30;1.20;;;15.60;60.40;;;;;;5054203;28;20163;-73
2024/02/10 03:23:20;;;;;;;1.63;1.52;;;15.60;60.40;;;;;;5053285;28;20187;-74
2024/02/10 03:25:45;;;;;;;2.08;1.52;;;15.60;60.50;;;;;;5054323;28;20203;-74
2024/02/10 03:28:15;;;;;;;1.40;1.30;;;15.60;60.40;;;;;;5054152;28;20615;-74
2024/02/10 03:30:43;;;;;;;1.35;1.25;;;15.60;60.40;;;;;;5053117;28;20694;-74
2024/02/10 03:33:09;;;;;;;1.20;1.20;;;15.70;60.50;;;;;;5053924;28;20195;-74
2024/02/10 03:35:34;;;;;;;1.73;1.50;;;15.60;60.50;;;;;;5054075;28;20221;-74
2024/02/10 03:38:00;;;;;;;1.40;1.30;;;15.60;60.50;;;;;;5053282;28;20644;-74
2024/02/10 03:40:25;;;;;;;1.30;1.20;;;15.50;60.40;;;;;;5053839;28;20537;-74
2024/02/10 03:42:51;;;;;;;1.35;1.25;;;15.60;60.50;;;;;;5053831;28;20626;-74
2024/02/10 03:45:18;;;;;;;1.52;1.42;;;15.60;60.50;;;;;;5053000;28;20163;-73
2024/02/10 03:47:43;;;;;;;1.50;1.40;;;15.50;60.40;;;;;;5053741;28;20182;-74
2024/02/10 03:50:13;;;;;;;1.48;1.30;;;15.60;60.50;;;;;;5053678;28;20171;-73
2024/02/10 03:52:39;;;;;;;1.50;1.40;;;15.60;60.50;;;;;;5059247;28;20183;-74
2024/02/10 03:55:08;;;;;;;1.48;1.38;;;15.60;60.50;;;;;;5073869;28;20177;-74
2024/02/10 03:57:35;;;;;;;1.65;1.40;;;15.60;60.50;;;;;;5073101;28;20238;-75
2024/02/10 04:00:00;;;;;;;1.52;1.42;;;15.50;60.50;;;;;;5071797;28;20538;-74
2024/02/10 04:02:26;;;;;;;1.20;1.10;;;15.50;60.50;;;;;;5073341;28;20170;-74
2024/02/10 04:04:53;;;;;;;1.23;1.13;;;15.60;60.50;;;;;;5072821;28;20171;-74
2024/02/10 04:07:20;;;;;;;1.88;1.38;;;15.60;60.50;;;;;;5073208;28;20211;-74
2024/02/10 04:09:46;;;;;;;1.45;1.35;;;15.50;60.50;;;;;;5073553;28;20189;-74
2024/02/10 04:12:11;;;;;;;1.30;1.20;;;15.50;60.50;;;;;;5072500;28;20183;-74
2024/02/10 04:14:37;;;;;;;1.50;1.40;;;15.50;60.50;;;;;;5072835;28;20174;-74
2024/02/10 04:17:02;;;;;;;1.40;1.30;;;15.60;60.50;;;;;;5073310;28;20242;-74
2024/02/10 04:19:30;;;;;;;2.55;1.58;;;15.50;60.50;;;;;;5072085;28;20257;-74
2024/02/10 04:21:56;;;;;;;1.23;1.13;;;15.50;60.50;;;;;;5073262;28;20178;-74
2024/02/10 04:24:21;;;;;;;1.60;1.50;;;15.50;60.50;;;;;;5073099;28;20185;-74
2024/02/10 04:26:48;;;;;;;1.67;1.58;;;15.50;60.50;;;;;;5072427;28;20592;-74
2024/02/10 04:29:14;;;;;;;1.75;1.50;;;15.50;60.50;;;;;;5073010;28;20196;-74
2024/02/10 04:31:40;;;;;;;1.63;1.33;;;15.50;60.50;;;;;;5072801;28;20705;-74
2024/02/10 04:34:06;;;;;;;1.83;1.63;;;15.50;60.50;;;;;;5072589;28;20182;-74
2024/02/10 04:36:34;;;;;;;1.20;1.10;;;15.50;60.50;;;;;;5072656;28;20210;-74
2024/02/10 04:39:06;;;;;;;1.73;1.45;;;15.50;60.60;;;;;;5072786;28;20181;-74
2024/02/10 04:41:31;;;;;;;1.50;1.40;;;15.90;60.80;;;;;;5071694;28;20178;-74
2024/02/10 04:43:57;;;;;;;1.40;1.30;;;15.50;60.60;;;;;;5072600;28;20701;-74
2024/02/10 04:46:23;;;;;;;1.33;1.10;;;15.50;60.50;;;;;;5072414;28;20265;-73
2024/02/10 04:48:52;;;;;;;1.50;1.40;;;15.50;60.60;;;;;;5071962;28;20170;-73
2024/02/10 04:51:18;;;;;;;1.40;1.30;;;15.40;60.40;;;;;;5072453;28;20175;-74
2024/02/10 04:53:44;;;;;;;2.30;1.50;;;15.50;60.50;;;;;;5056957;28;20229;-74
2024/02/10 04:56:16;;;;;;;1.48;1.38;;;15.50;60.60;;;;;;5051918;28;20254;-75
2024/02/10 04:58:41;;;;;;;1.30;1.20;;;15.40;60.50;;;;;;5052086;28;20238;-74
2024/02/10 05:01:10;;;;;;;1.77;1.42;;;15.50;60.60;;;;;;5051815;28;20225;-74
2024/02/10 05:03:42;;;;;;;1.40;1.30;;;15.50;60.60;;;;;;5052225;28;20298;-74
2024/02/10 05:06:09;;;;;;;1.58;1.38;;;15.50;60.60;;;;;;5052322;28;20194;-74
2024/02/10 05:08:37;;;;;;;1.60;1.50;;;15.40;60.50;;;;;;5051350;28;20175;-74
2024/02/10 05:11:03;;;;;;;1.38;1.27;;;15.40;60.50;;;;;;5052305;28;20237;-74
2024/02/10 05:13:30;;;;;;;1.50;1.40;;;15.40;60.50;;;;;;5052095;28;20178;-75
2024/02/10 05:15:55;;;;;;;1.30;1.20;;;15.50;60.60;;;;;;5051665;28;20171;-75
2024/02/10 05:18:21;;;;;;;1.55;1.45;;;15.40;60.60;;;;;;5051865;28;20225;-74
2024/02/10 05:20:48;;;;;;;1.42;1.33;;;15.40;60.50;;;;;;5052182;28;20179;-73
2024/02/10 05:23:14;;;;;;;1.40;1.20;;;15.40;60.60;;;;;;5051408;28;20193;-74
2024/02/10 05:25:40;;;;;;;1.55;1.45;;;15.40;60.50;;;;;;5051589;28;20168;-74
2024/02/10 05:28:06;;;;;;;1.60;1.50;;;15.40;60.50;;;;;;5052219;28;20704;-74
2024/02/10 05:30:32;;;;;;;1.45;1.35;;;15.40;60.60;;;;;;5050875;28;20687;-74
2024/02/10 05:33:01;;;;;;;1.30;1.20;;;15.40;60.50;;;;;;5051924;28;20254;-74
2024/02/10 05:35:29;;;;;;;1.40;1.30;;;15.40;60.50;;;;;;5051625;28;20183;-74
2024/02/10 05:37:59;;;;;;;1.40;1.30;;;15.40;60.50;;;;;;5051022;28;20677;-73
2024/02/10 05:40:28;;;;;;;1.70;1.33;;;15.40;60.60;;;;;;5051817;28;20320;-74
2024/02/10 05:42:59;;;;;;;1.50;1.40;;;15.40;60.60;;;;;;5051994;28;20210;-74
2024/02/10 05:45:24;;;;;;;2.13;1.80;;;15.40;60.50;;;;;;5050959;28;20178;-74
2024/02/10 05:47:50;;;;;;;1.35;1.25;;;15.40;60.50;;;;;;5051917;28;20179;-74
2024/02/10 05:50:19;;;;;;;1.50;1.40;;;15.40;60.60;;;;;;5051205;28;20560;-74
2024/02/10 05:52:45;;;;;;;1.30;1.20;;;15.40;60.60;;;;;;5059033;28;20174;-74
2024/02/10 05:55:12;;;;;;;1.63;1.20;;;15.40;60.60;;;;;;5071904;28;20594;-74
2024/02/10 05:57:38;;;;;;;1.23;1.13;;;15.40;60.60;;;;;;5070466;28;20307;-74
2024/02/10 06:00:09;;;;;;;1.20;1.10;;;15.40;60.60;;;;;;5071853;28;20183;-74
2024/02/10 06:02:38;;;;;;;1.40;1.30;;;15.40;60.60;;;;;;5071621;28;20202;-74
2024/02/10 06:05:07;;;;;;;1.30;1.20;;;15.40;60.60;;;;;;5071021;28;20171;-74
2024/02/10 06:07:35;;;;;;;1.30;1.20;;;15.30;60.50;;;;;;5071527;28;20179;-74
2024/02/10 06:10:07;;;;;;;1.42;1.33;;;15.40;60.60;;;;;;5071615;28;20660;-74
2024/02/10 06:12:33;;;;;;;1.02;1.02;;;15.40;60.50;;;;;;5071044;28;20222;-73
2024/02/10 06:14:58;;;;;;;1.48;1.20;;;15.30;60.50;;;;;;5071556;28;20185;-74
2024/02/10 06:17:24;;;;;;;1.05;1.00;;;15.30;60.50;;;;;;5071063;28;20210;-74
2024/02/10 06:19:50;;;;;;;2.30;1.48;;;15.30;60.50;;;;;;5070787;28;20258;-73
2024/02/10 06:22:18;;;;;;;1.10;1.10;;;15.30;60.50;;;;;;5072787;28;20177;-74
2024/02/10 06:24:44;;;;;;;1.30;1.20;;;15.40;60.50;;;;;;5075281;28;20265;-73
2024/02/10 06:27:10;;;;;;;1.40;1.10;;;15.40;60.50;;;;;;5074677;28;20264;-73
2024/02/10 06:29:35;;;;;;;1.30;1.02;;;15.40;60.40;;;;;;5074937;28;20257;-73
2024/02/10 06:32:05;;;;;;;1.30;1.20;;;15.40;60.40;;;;;;5075120;28;20174;-73
2024/02/10 06:34:31;;;;;;;1.30;1.20;;;15.40;60.40;;;;;;5074356;28;20171;-74
2024/02/10 06:36:57;;;;;;;1.15;1.00;;;15.40;60.30;;;;;;5075156;28;20210;-74
2024/02/10 06:39:23;;;;;;;1.35;1.13;;;15.40;60.40;;;;;;5074749;28;20245;-74
2024/02/10 06:41:50;;;;;;;1.40;1.30;;;15.40;60.30;;;;;;5074808;28;20177;-74
2024/02/10 06:44:16;;;;;;;1.20;1.10;;;15.40;60.40;;;;;;5074962;28;20190;-74
2024/02/10 06:46:41;;;;;;;1.23;1.15;;;15.40;60.40;;;;;;5074119;28;20282;-74
2024/02/10 06:49:07;;;;;;;1.27;1.17;;;15.40;60.40;;;;;;5075071;28;20275;-73
2024/02/10 06:51:32;;;;;;;1.20;1.10;;;15.40;60.40;;;;;;5074647;28;20174;-74
2024/02/10 06:53:58;;;;;;;1.20;1.02;;;15.30;60.40;;;;;;5056515;28;20182;-74
2024/02/10 06:56:24;;;;;;;1.00;1.00;;;15.50;60.50;;;;;;5054570;28;20175;-74
2024/02/10 06:58:50;;;;;;;1.08;1.05;;;15.60;60.60;;;;;;5054601;28;20235;-74
2024/02/10 07:01:17;;;;;;;1.17;0.98;;;15.60;60.40;;;;;;5053787;28;20216;-74
2024/02/10 07:03:45;;;;;;;1.23;1.13;;;15.70;60.70;;;;;;5054672;28;20260;-73
2024/02/10 07:06:17;;;;;;;1.15;1.08;;;15.90;60.30;;;;;;5054743;28;20199;-74
2024/02/10 07:08:46;;;;;;;1.25;1.15;;;16.00;60.00;;;;;;5053908;28;20183;-74
2024/02/10 07:11:12;;;;;;;1.00;0.90;;;16.10;59.70;;;;;;5054772;28;20178;-74
2024/02/10 07:13:37;;;;;;;1.02;0.93;;;16.30;59.50;;;;;;5054091;28;20180;-72
2024/02/10 07:16:06;;;;;;;0.88;0.88;;;16.40;59.20;;;;;;5053614;28;20183;-74
2024/02/10 07:18:32;;;;;;;0.90;0.90;;;16.60;59.10;;;;;;5054233;28;20214;-73
2024/02/10 07:20:58;;;;;;;0.85;0.85;;;16.80;58.80;;;;;;5054412;28;20175;-74
2024/02/10 07:23:26;;;;;;;1.23;1.08;;;16.90;58.60;;;;;;5053210;28;20175;-74
2024/02/10 07:25:52;;;;;;;1.02;0.95;;;17.00;58.40;;;;;;5054056;28;20553;-74
2024/02/10 07:28:19;;;;;;;0.90;0.90;;;17.00;58.30;;;;;;5053805;28;20175;-75
2024/02/10 07:30:46;;;;;;;0.80;0.70;;;17.10;58.20;;;;;;5053361;28;20183;-74
2024/02/10 07:33:13;;;;;;;1.25;1.15;;;17.10;58.20;;;;;;5053339;28;20233;-74
2024/02/10 07:35:39;;;;;;;0.95;0.93;;;17.10;58.20;;;;;;5053330;28;20221;-74
2024/02/10 07:38:04;;;;;;;0.90;0.90;;;17.10;58.80;;;;;;5053578;28;20203;-74
2024/02/10 07:40:30;;;;;;;0.95;0.95;;;17.20;58.10;;;;;;5053679;28;20182;-73
2024/02/10 07:42:55;;;;;;;0.82;0.82;;;17.10;58.00;;;;;;5053072;28;20241;-73
2024/02/10 07:45:24;;;;;;;1.52;0.98;;;17.20;57.90;;;;;;5053765;28;20228;-73
2024/02/10 07:47:50;;;;;;;0.80;0.80;;;17.20;57.70;;;;;;5053936;28;20172;-73
2024/02/10 07:50:15;;;;;;;1.20;1.00;;;17.30;57.70;;;;;;5052954;28;20167;-73
2024/02/10 07:52:45;;;;;;;1.10;1.00;;;17.30;57.70;;;;;;5060162;28;20201;-73
2024/02/10 07:55:12;;;;;;;0.93;0.93;;;17.30;57.80;;;;;;5073853;28;20216;-73
2024/02/10 07:57:41;;;;;;;1.63;0.88;;;17.30;57.80;;;;;;5071071;28;20230;-73
2024/02/10 08:00:09;;;;;;;0.98;0.98;;;17.20;58.00;;;;;;5073705;28;20177;-74
2024/02/10 08:02:35;;;;;;;0.93;0.93;;;17.20;58.10;;;;;;5072915;28;20695;-73
2024/02/10 08:05:01;;;;;;;1.45;1.15;;;17.20;58.10;;;;;;5072824;28;20178;-73
2024/02/10 08:07:29;;;;;;;1.15;0.95;;;17.20;58.10;;;;;;5073158;28;20175;-73
2024/02/10 08:09:55;;;;;;;1.00;0.90;;;17.20;58.10;;;;;;5073251;28;20174;-74
2024/02/10 08:12:23;;;;;;;0.95;0.93;;;17.20;58.10;;;;;;5072108;28;20752;-74
2024/02/10 08:14:50;;;;;;;1.20;1.00;;;17.30;58.10;;;;;;5073091;28;20657;-74
2024/02/10 08:17:16;;;;;;;0.95;0.85;;;17.30;58.10;;;;;;5073193;28;20220;-73
2024/02/10 08:19:42;;;;;;;0.80;0.80;;;17.30;58.70;;;;;;5072409;28;20170;-73
2024/02/10 08:22:09;;;;;;;0.90;0.90;;;17.30;58.00;;;;;;5072905;28;20178;-73
2024/02/10 08:24:35;;;;;;;1.00;0.90;;;17.30;58.10;;;;;;5072574;28;20174;-74
2024/02/10 08:27:01;;;;;;;0.98;0.98;;;17.30;58.00;;;;;;5072440;28;20174;-73
2024/02/10 08:29:34;;;;;;;0.82;0.82;;;17.30;58.00;;;;;;5072806;28;20260;-73
2024/02/10 08:32:02;;;;;;;0.82;0.82;;;17.40;58.00;;;;;;5071886;28;20545;-73
2024/02/10 08:34:31;;;;;;;0.80;0.80;;;17.30;58.00;;;;;;5072610;28;20544;-73
2024/02/10 08:36:57;;;;;;;0.85;0.85;;;17.30;58.00;;;;;;5072656;28;20725;-74
2024/02/10 08:39:22;;;;;;;1.25;0.90;;;17.40;58.00;;;;;;5071687;28;20239;-74
2024/02/10 08:41:48;;;;;;;0.73;0.73;;;17.40;57.90;;;;;;5072942;28;20190;-73
2024/02/10 08:44:14;;;;;;;1.48;1.10;;;17.40;57.80;;;;;;5072594;28;20257;-73
2024/02/10 08:46:41;;;;;;;1.70;1.00;;;17.50;57.80;;;;;;5071387;28;20174;-73
2024/02/10 08:49:07;;;;;;;1.00;0.90;;;17.50;57.70;;;;;;5072627;28;20261;-72
2024/02/10 08:51:33;;;;;;;0.95;0.95;;;17.50;57.60;;;;;;5072489;28;20262;-73
2024/02/10 08:53:58;;;;;;;0.80;0.80;;;17.50;57.80;;;;;;5054234;28;20535;-73
2024/02/10 08:56:28;;;;;;;1.13;1.02;;;17.50;57.80;;;;;;5052429;28;20518;-73
2024/02/10 08:58:54;;;;;;;0.88;0.88;;;17.50;57.90;;;;;;5052364;28;20231;-73
2024/02/10 09:01:19;;;;;;;0.90;0.90;;;17.50;57.90;;;;;;5051677;28;20179;-74
2024/02/10 09:03:56;;;;;;;0.70;0.63;;;17.50;57.70;;;;;;5052597;28;20183;-73
2024/02/10 09:06:22;;;;;;;1.17;1.08;;;17.50;57.80;;;;;;5052014;28;20331;-73
2024/02/10 09:08:51;;;;;;;1.20;1.10;;;17.50;57.80;;;;;;5051864;28;20264;-73
2024/02/10 09:11:18;;;;;;;0.93;0.90;;;17.50;57.80;;;;;;5052187;28;20181;-74
2024/02/10 09:13:45;;;;;;;1.67;1.00;;;17.40;57.80;;;;;;5051811;28;20223;-73
2024/02/10 09:16:11;;;;;;;2.08;1.67;;;17.30;58.00;;;;;;5051321;28;20179;-74
2024/02/10 09:18:36;;;;;;;1.60;0.90;;;17.30;58.10;;;;;;5051711;28;20681;-74
2024/02/10 09:21:02;;;;;;;1.05;1.00;;;17.30;58.10;;;;;;5051374;28;20183;-74
2024/02/10 09:23:29;;;;;;;0.88;0.88;;;17.30;58.10;;;;;;5050814;28;20186;-74
2024/02/10 09:25:55;;;;;;;0.90;0.90;;;17.30;58.30;;;;;;5052166;28;20250;-73
2024/02/10 09:28:22;;;;;;;0.82;0.82;;;17.20;58.40;;;;;;5051147;28;20655;-74
2024/02/10 09:30:47;;;;;;;1.38;1.02;;;17.20;59.10;;;;;;5051903;28;20595;-75
2024/02/10 09:33:20;;;;;;;1.73;1.00;;;17.20;58.50;;;;;;5051958;28;20189;-74
2024/02/10 09:35:48;;;;;;;1.10;1.00;;;17.20;58.50;;;;;;5051166;28;20186;-73
2024/02/10 09:38:15;;;;;;;1.73;0.90;;;17.20;58.50;;;;;;5052174;28;20246;-73
2024/02/10 09:40:42;;;;;;;1.50;1.00;;;17.20;58.50;;;;;;5051926;28;20183;-73
2024/02/10 09:43:08;;;;;;;1.42;0.85;;;17.20;58.50;;;;;;5051237;28;20182;-73
2024/02/10 09:45:35;;;;;;;1.10;0.90;;;17.20;58.50;;;;;;5051486;28;20271;-73
2024/02/10 09:48:01;;;;;;;1.35;1.00;;;17.10;58.50;;;;;;5051703;28;20175;-73
2024/02/10 09:50:28;;;;;;;0.90;0.90;;;17.10;58.70;;;;;;5033371;28;20183;-73
2024/02/10 09:52:55;;;;;;;1.10;0.80;;;17.10;58.70;;;;;;5059260;28;20198;-74
2024/02/10 09:55:20;;;;;;;2.05;1.13;;;17.10;58.70;;;;;;5071600;28;20178;-74
2024/02/10 09:57:46;;;;;;;1.00;0.93;;;17.00;58.80;;;;;;5072927;28;20229;-73
2024/02/10 10:00:15;;;;;;;1.40;0.80;;;17.10;58.80;;;;;;5057942;28;20257;-74
2024/02/10 10:02:41;;;;;;;1.00;0.98;;;17.10;58.70;;;;;;5075615;28;20188;-73
2024/02/10 10:05:07;;;;;;;0.77;0.77;;;17.10;58.80;;;;;;5074220;28;20205;-73
2024/02/10 10:07:32;;;;;;;0.85;0.85;;;17.10;58.70;;;;;;5075647;28;20175;-74
2024/02/10 10:09:58;;;;;;;0.80;0.80;;;17.10;58.70;;;;;;5075288;28;20163;-74
2024/02/10 10:12:25;;;;;;;1.10;0.98;;;17.10;58.70;;;;;;5073465;28;20198;-73
2024/02/10 10:14:51;;;;;;;1.42;0.82;;;17.10;58.70;;;;;;5074401;28;20573;-74
2024/02/10 10:17:16;;;;;;;0.80;0.70;;;17.10;58.70;;;;;;5075617;28;20206;-74
2024/02/10 10:19:45;;;;;;;0.82;0.82;;;17.10;58.80;;;;;;5074908;28;20516;-73
2024/02/10 10:22:11;;;;;;;0.80;0.80;;;17.00;58.80;;;;;;5074341;28;20171;-73
2024/02/10 10:24:36;;;;;;;0.80;0.80;;;17.00;58.90;;;;;;5074432;28;20174;-73
2024/02/10 10:27:02;;;;;;;1.10;1.10;;;17.00;59.20;;;;;;5075298;28;20543;-73
2024/02/10 10:29:31;;;;;;;0.98;0.90;;;17.10;59.00;;;;;;5074868;28;20170;-73
2024/02/10 10:31:59;;;;;;;1.33;1.10;;;17.10;58.90;;;;;;5074231;28;20679;-73
2024/02/10 10:34:25;;;;;;;0.93;0.90;;;17.10;58.90;;;;;;5073564;28;20663;-73
2024/02/10 10:36:52;;;;;;;1.50;0.70;;;17.10;58.90;;;;;;5047777;28;20320;-74
2024/02/10 10:39:17;;;;;;;0.90;0.90;;;17.10;58.90;;;;;;5053931;28;20639;-73
2024/02/10 10:41:44;;;;;;;2.15;0.90;;;17.10;58.90;;;;;;5054972;28;20179;-74
2024/02/10 10:44:10;;;;;;;0.68;0.68;;;17.10;58.90;;;;;;5053632;28;20540;-73
2024/02/10 10:46:35;;;;;;;0.90;0.90;;;17.00;58.90;;;;;;5052688;28;20672;-73
2024/02/10 10:49:01;;;;;;;1.00;1.00;;;17.00;58.90;;;;;;5055023;28;20548;-72
2024/02/10 10:51:31;;;;;;;0.80;0.80;;;17.00;59.10;;;;;;5054538;28;20266;-73
2024/02/10 10:53:56;;;;;;;1.33;1.10;;;16.90;59.00;;;;;;5052868;28;20643;-74
2024/02/10 10:56:24;;;;;;;0.75;0.70;;;16.90;59.00;;;;;;5054240;28;20175;-73
2024/02/10 10:58:57;;;;;;;1.90;0.90;;;16.90;59.10;;;;;;5053227;28;20230;-73
2024/02/10 11:01:23;;;;;;;0.60;0.60;;;16.90;59.10;;;;;;5052740;28;20183;-73
2024/02/10 11:03:48;;;;;;;0.85;0.85;;;16.90;59.20;;;;;;5052843;28;20176;-73
2024/02/10 11:06:14;;;;;;;1.45;1.00;;;16.90;59.20;;;;;;5054349;28;20646;-73
2024/02/10 11:08:40;;;;;;;0.98;0.90;;;16.90;59.40;;;;;;5053236;28;20523;-72
2024/02/10 11:11:08;;;;;;;1.42;0.90;;;16.90;59.40;;;;;;5054512;28;20621;-73
2024/02/10 11:13:35;;;;;;;1.15;1.05;;;16.90;59.40;;;;;;5054054;28;20183;-73
2024/02/10 11:16:14;;;;;;;2.67;0.80;;;16.90;59.40;;;;;;5053858;28;20252;-73
2024/02/10 11:18:43;;;;;;;0.90;0.90;;;16.90;59.50;;;;;;5053984;28;20225;-73
2024/02/10 11:21:21;;;;;;;0.90;0.90;;;16.90;59.70;;;;;;5053673;28;20186;-73
2024/02/10 11:23:57;;;;;;;1.40;1.08;;;16.80;59.70;;;;;;5054283;28;20210;-73
2024/02/10 11:26:26;;;;;;;1.63;0.85;;;16.80;59.80;;;;;;5053739;28;20249;-73
2024/02/10 11:28:59;;;;;;;1.63;0.82;;;16.80;59.90;;;;;;5053645;28;20180;-73
2024/02/10 11:31:25;;;;;;;0.85;0.77;;;16.80;59.80;;;;;;5053485;28;20171;-74
2024/02/10 11:33:51;;;;;;;2.10;1.00;;;16.80;59.80;;;;;;5052310;28;20183;-74
2024/02/10 11:36:19;;;;;;;1.20;0.80;;;16.80;59.90;;;;;;5051830;28;20178;-74
2024/02/10 11:38:45;;;;;;;0.80;0.80;;;16.80;59.80;;;;;;5053025;28;20191;-74
2024/02/10 11:41:11;;;;;;;0.98;0.88;;;16.80;59.90;;;;;;5052859;28;20175;-72
2024/02/10 11:43:37;;;;;;;1.05;0.98;;;16.80;59.90;;;;;;5053074;28;20257;-73
2024/02/10 11:46:03;;;;;;;1.65;1.10;;;16.80;60.10;;;;;;5052406;28;20183;-72
2024/02/10 11:48:31;;;;;;;3.97;1.08;;;16.80;59.90;;;;;;5052890;28;20282;-69
2024/02/10 11:50:59;;;;;;;0.82;0.73;;;16.80;60.00;;;;;;5052340;28;20183;-69
2024/02/10 11:53:25;;;;;;;0.93;0.90;;;16.80;59.80;;;;;;5052072;28;20178;-69
2024/02/10 11:55:50;;;;;;;2.83;1.27;;;16.80;60.50;;;;;;5051417;28;20544;-69
2024/02/10 11:58:18;;;;;;;1.52;0.88;;;16.80;59.70;;;;;;5051043;28;20227;-70
2024/02/10 12:00:46;;;;;;;1.17;1.05;;;16.80;59.80;;;;;;5052207;28;20176;-69
2024/02/10 12:03:19;;;;;;;0.65;0.65;;;16.80;59.80;;;;;;5052578;28;20175;-70
2024/02/10 12:05:48;;;;;;;1.20;0.90;;;16.80;59.70;;;;;;5053847;28;20294;-70
2024/02/10 12:08:14;;;;;;;1.25;0.88;;;16.80;59.70;;;;;;5053643;28;20170;-71
2024/02/10 12:10:39;;;;;;;0.80;0.80;;;16.80;59.80;;;;;;5052603;28;20201;-70
2024/02/10 12:13:05;;;;;;;0.82;0.82;;;16.80;59.70;;;;;;5053444;28;20757;-69
2024/02/10 12:15:32;;;;;;;1.20;1.10;;;16.80;59.60;;;;;;5053044;28;20227;-69
2024/02/10 12:17:58;;;;;;;1.00;0.82;;;16.80;59.60;;;;;;5052463;28;20234;-69
2024/02/10 12:20:25;;;;;;;1.10;0.90;;;16.90;59.70;;;;;;5052064;28;20172;-69
2024/02/10 12:22:51;;;;;;;2.03;0.90;;;16.80;59.60;;;;;;5053152;28;20187;-70
2024/02/10 12:25:17;;;;;;;2.28;1.10;;;16.80;59.60;;;;;;5051144;28;20641;-70
2024/02/10 12:27:43;;;;;;;1.20;1.10;;;16.80;59.60;;;;;;5052991;28;20187;-69
2024/02/10 12:30:09;;;;;;;1.30;0.80;;;16.80;59.60;;;;;;5053077;28;20213;-69
2024/02/10 12:32:34;;;;;;;1.13;0.90;;;16.80;59.60;;;;;;5051521;28;20590;-69
2024/02/10 12:35:06;;;;;;;1.95;0.70;;;16.80;59.60;;;;;;5053147;28;20207;-69
2024/02/10 12:37:31;;;;;;;1.60;0.68;;;16.80;59.60;;;;;;5052776;28;20206;-70
2024/02/10 12:39:57;;;;;;;0.98;0.88;;;16.80;59.60;;;;;;5050965;28;20182;-70
2024/02/10 12:42:23;;;;;;;1.52;0.80;;;16.80;59.60;;;;;;5051282;28;20277;-69
2024/02/10 12:44:49;;;;;;;0.90;0.90;;;16.80;59.60;;;;;;5052692;28;20182;-70